Latest Weather Observations for Inner Beacon

IDQ60801

Issued at 7:02 am EST Tuesday 7 July 2020 (issued every 10 minutes, with the page automatically refreshed every 10 minutes)

About weather observations | Map of weather stations | Latest weather observations for QLD | Other Formats
Station Details ID: 040926 Name: INNER RECIPROCAL MARKER Lat: -27.26 Lon: 153.24 Height: 10.0 m
Data from the previous 72 hours. | See also: Recent months at Inner Beacon
Date/Time
EST
Temp
°C
App
Temp
°C
Dew
Point
°C
Rel
Hum
%
Delta-T
°C
Wind Press
QNH
hPa
Press
MSL
hPa
Rain since
9am
mm
Dir  Spd
km/h
Gust
km/h
Spd
kts
Gust
kts
07/07:00am - - - - - SSW 22 26 12 14 - - -
07/06:30am - - - - - SSW 20 22 11 12 - - -
07/06:00am - - - - - SSW 22 26 12 14 - - -
07/05:30am - - - - - SSW 19 22 10 12 - - -
07/05:00am - - - - - SW 19 20 10 11 - - -
07/04:30am - - - - - SSW 22 24 12 13 - - -
07/04:00am - - - - - SSW 20 24 11 13 - - -
07/03:30am - - - - - SSW 19 20 10 11 - - -
07/03:00am - - - - - SSW 19 20 10 11 - - -
07/02:30am - - - - - SSW 19 20 10 11 - - -
07/02:00am - - - - - SSW 15 19 8 10 - - -
07/01:30am - - - - - SSW 19 20 10 11 - - -
07/01:00am - - - - - SW 17 19 9 10 - - -
07/12:30am - - - - - SSW 13 17 7 9 - - -
07/12:00am - - - - - S 17 19 9 10 - - -
 
Date/Time
EST
Temp
°C
App
Temp
°C
Dew
Point
°C
Rel
Hum
%
Delta-T
°C
Wind Press
QNH
hPa
Press
MSL
hPa
Rain since
9am
mm
Dir  Spd
km/h
Gust
km/h
Spd
kts
Gust
kts
06/11:30pm - - - - - S 17 19 9 10 - - -
06/11:00pm - - - - - SSE 15 19 8 10 - - -
06/10:30pm - - - - - SSE 19 22 10 12 - - -
06/10:00pm - - - - - SSE 17 19 9 10 - - -
06/09:30pm - - - - - SSE 15 17 8 9 - - -
06/09:00pm - - - - - SE 13 15 7 8 - - -
06/08:30pm - - - - - SE 11 15 6 8 - - -
06/08:00pm - - - - - SE 13 17 7 9 - - -
06/07:30pm - - - - - SE 13 15 7 8 - - -
06/07:00pm - - - - - SE 13 17 7 9 - - -
06/06:30pm - - - - - SE 11 17 6 9 - - -
06/06:00pm - - - - - SE 15 19 8 10 - - -
06/05:30pm - - - - - SE 15 17 8 9 - - -
06/05:00pm - - - - - ESE 17 19 9 10 - - -
06/04:30pm - - - - - ESE 11 15 6 8 - - -
06/04:00pm - - - - - SE 9 9 5 5 - - -
06/03:30pm - - - - - SE 9 13 5 7 - - -
06/03:00pm - - - - - SE 11 13 6 7 - - -
06/02:30pm - - - - - SSE 13 15 7 8 - - -
06/02:00pm - - - - - SSE 13 15 7 8 - - -
06/01:30pm - - - - - SSE 15 17 8 9 - - -
06/01:00pm - - - - - SSE 17 19 9 10 - - -
06/12:30pm - - - - - S 15 17 8 9 - - -
06/12:00pm - - - - - S 13 15 7 8 - - -
06/11:30am - - - - - S 15 17 8 9 - - -
06/11:00am - - - - - S 17 20 9 11 - - -
06/10:30am - - - - - SSW 17 20 9 11 - - -
06/10:00am - - - - - SSW 15 17 8 9 - - -
06/09:30am - - - - - SSW 17 20 9 11 - - -
06/09:00am - - - - - SSW 19 22 10 12 - - -
06/08:30am - - - - - SSW 20 24 11 13 - - -
06/08:00am - - - - - SSW 24 28 13 15 - - -
06/07:30am - - - - - SSW 24 28 13 15 - - -
06/07:00am - - - - - SSW 19 22 10 12 - - -
06/06:30am - - - - - SW 20 24 11 13 - - -
06/06:00am - - - - - SW 20 24 11 13 - - -
06/05:30am - - - - - SW 22 26 12 14 - - -
06/05:00am - - - - - SW 22 26 12 14 - - -
06/04:30am - - - - - SW 20 22 11 12 - - -
06/04:00am - - - - - SW 22 24 12 13 - - -
06/03:30am - - - - - SW 20 24 11 13 - - -
06/03:00am - - - - - SW 17 20 9 11 - - -
06/02:30am - - - - - SW 15 15 8 8 - - -
06/02:00am - - - - - SSW 15 17 8 9 - - -
06/01:30am - - - - - SSW 17 20 9 11 - - -
06/01:00am - - - - - SW 15 17 8 9 - - -
06/12:30am - - - - - SW 15 17 8 9 - - -
06/12:00am - - - - - SW 15 17 8 9 - - -
 
Date/Time
EST
Temp
°C
App
Temp
°C
Dew
Point
°C
Rel
Hum
%
Delta-T
°C
Wind Press
QNH
hPa
Press
MSL
hPa
Rain since
9am
mm
Dir  Spd
km/h
Gust
km/h
Spd
kts
Gust
kts
05/11:30pm - - - - - SSW 13 15 7 8 - - -
05/11:00pm - - - - - SW 11 13 6 7 - - -
05/10:30pm - - - - - WSW 15 17 8 9 - - -
05/10:00pm - - - - - W 9 11 5 6 - - -
05/09:30pm - - - - - WSW 7 7 4 4 - - -
05/09:00pm - - - - - CALM 0 0 0 0 - - -
05/08:30pm - - - - - NNE 4 4 2 2 - - -
05/08:00pm - - - - - E 9 11 5 6 - - -
05/07:30pm - - - - - ENE 11 13 6 7 - - -
05/07:00pm - - - - - NE 7 9 4 5 - - -
05/06:30pm - - - - - NE 7 9 4 5 - - -
05/06:00pm - - - - - NE 9 11 5 6 - - -
05/05:30pm - - - - - ENE 9 11 5 6 - - -
05/05:00pm - - - - - NE 11 13 6 7 - - -
05/04:30pm - - - - - ENE 11 15 6 8 - - -
05/04:00pm - - - - - ENE 9 13 5 7 - - -
05/03:30pm - - - - - E 6 7 3 4 - - -
05/03:00pm - - - - - SE 6 7 3 4 - - -
05/02:30pm - - - - - S 9 11 5 6 - - -
05/02:00pm - - - - - S 13 15 7 8 - - -
05/01:30pm - - - - - SSE 15 17 8 9 - - -
05/01:00pm - - - - - S 13 15 7 8 - - -
05/12:30pm - - - - - SSW 13 17 7 9 - - -
05/12:00pm - - - - - SW 11 15 6 8 - - -
05/11:30am - - - - - SSW 15 17 8 9 - - -
05/11:00am - - - - - S 11 13 6 7 - - -
05/10:30am - - - - - SSW 15 19 8 10 - - -
05/10:00am - - - - - SSW 13 17 7 9 - - -
05/09:30am - - - - - WSW 11 15 6 8 - - -
05/09:00am - - - - - W 11 13 6 7 - - -
05/08:30am - - - - - W 13 17 7 9 - - -
05/08:00am - - - - - W 15 17 8 9 - - -
05/07:30am - - - - - WSW 17 19 9 10 - - -
05/07:00am - - - - - WSW 15 19 8 10 - - -
05/06:30am - - - - - W 17 20 9 11 - - -
05/06:00am - - - - - W 19 22 10 12 - - -
05/05:30am - - - - - W 19 22 10 12 - - -
05/05:00am - - - - - W 22 26 12 14 - - -
05/04:30am - - - - - W 20 26 11 14 - - -
05/04:00am - - - - - W 22 28 12 15 - - -
05/03:30am - - - - - W 24 30 13 16 - - -
05/03:00am - - - - - WSW 28 32 15 17 - - -
05/02:30am - - - - - WSW 28 30 15 16 - - -
05/02:00am - - - - - WSW 24 30 13 16 - - -
05/01:30am - - - - - WSW 26 32 14 17 - - -
05/01:00am - - - - - WSW 28 33 15 18 - - -
05/12:30am - - - - - WSW 28 35 15 19 - - -
05/12:00am - - - - - WSW 30 35 16 19 - - -
 
Date/Time
EST
Temp
°C
App
Temp
°C
Dew
Point
°C
Rel
Hum
%
Delta-T
°C
Wind Press
QNH
hPa
Press
MSL
hPa
Rain since
9am
mm
Dir  Spd
km/h
Gust
km/h
Spd
kts
Gust
kts
04/11:30pm - - - - - WSW 30 35 16 19 - - -
04/11:00pm - - - - - WSW 32 37 17 20 - - -
04/10:30pm - - - - - WSW 33 37 18 20 - - -
04/10:00pm - - - - - WSW 32 35 17 19 - - -
04/09:30pm - - - - - WSW 32 39 17 21 - - -
04/09:00pm - - - - - WSW 30 37 16 20 - - -
04/08:30pm - - - - - WSW 33 43 18 23 - - -
04/08:00pm - - - - - WSW 30 37 16 20 - - -
04/07:30pm - - - - - WSW 33 41 18 22 - - -
04/07:00pm - - - - - WSW 28 35 15 19 - - -
04/06:30pm - - - - - WSW 26 32 14 17 - - -
04/06:00pm - - - - - WSW 30 33 16 18 - - -
04/05:30pm - - - - - WSW 32 43 17 23 - - -
04/05:00pm - - - - - W 32 41 17 22 - - -
04/04:30pm - - - - - W 33 43 18 23 - - -
04/04:00pm - - - - - WSW 32 41 17 22 - - -
04/03:30pm - - - - - WSW 39 46 21 25 - - -
04/03:00pm - - - - - WSW 30 37 16 20 - - -
04/02:30pm - - - - - WSW 33 39 18 21 - - -
04/02:00pm - - - - - W 35 46 19 25 - - -
04/01:30pm - - - - - W 39 46 21 25 - - -
04/01:00pm - - - - - W 35 43 19 23 - - -
04/12:30pm - - - - - W 30 35 16 19 - - -
04/12:00pm - - - - - W 26 33 14 18 - - -
04/11:30am - - - - - WSW 20 33 11 18 - - -
04/11:00am - - - - - WSW 22 30 12 16 - - -
04/10:30am - - - - - WSW 26 33 14 18 - - -
04/10:00am - - - - - WSW 32 37 17 20 - - -
04/09:30am - - - - - WSW 26 32 14 17 - - -
04/09:00am - - - - - WSW 28 33 15 18 - - -
04/08:30am - - - - - SW 33 39 18 21 - - -
04/08:00am - - - - - WSW 37 44 20 24 - - -
04/07:30am - - - - - W 35 43 19 23 - - -

Other formats

Comma delimited format used in spreadsheet applications
http://www.bom.gov.au/fwo/IDQ60801/IDQ60801.94590.axf

JavaScript Object Notation format (JSON) in row-major order
http://www.bom.gov.au/fwo/IDQ60801/IDQ60801.94590.json

Data quality

Most of these data are generated automatically and are frequently updated. Quality checks on data are not normally performed. It is possible for incorrect values to appear. Refer to information at About Latest Weather Observations and please check the disclaimer before using these data.